Terminal Aerodrome Forecast
Issued by NWS

Home | Current Version | Previous Version | Text Only | Print | Product List | Glossary On
Versions: 1 2 3 4 5 6 7 8 9 10 11 12 13 14 15 16 17 18
000
FTUS45 KBOU 251726
TAFAPA
TAF
KAPA 251726Z 2518/2618 VRB05KT P6SM SKC
     FM251900 13007KT P6SM SKC
     FM252300 08007KT P6SM SKC
     FM260200 15008KT P6SM SKC
     FM260400 20009KT P6SM FEW140 SCT250
     FM261500 21014KT P6SM FEW120 SCT200=

USA.gov is the U.S. government's official web portal to all federal, state and local government web resources and services.